Time;durP1;ratioP1;P1;durP2;ratioP2;P2;SDS_P1;SDS_P2;PMS_P1;PMS_P2;Temp;Humidity;BMP_temperature;BMP_pressure;BME280_temperature;BME280_humidity;BME280_pressure;Samples;Min_cycle;Max_cycle;Signal;HPM_P1;HPM_P2
2023/03/05 00:02:12;;;;;;;48.08;19.23;;;3.10;99.90;;;;;;4947415;29;20031;-76
2023/03/05 00:04:37;;;;;;;44.42;18.95;;;3.20;99.90;;;;;;4947850;29;20031;-74
2023/03/05 00:07:04;;;;;;;48.28;18.85;;;3.10;99.90;;;;;;4950480;29;20030;-75
2023/03/05 00:09:30;;;;;;;44.38;19.70;;;3.10;99.90;;;;;;4950050;28;20094;-74
2023/03/05 00:11:56;;;;;;;47.97;18.33;;;3.10;99.90;;;;;;4948573;29;20382;-75
2023/03/05 00:14:22;;;;;;;44.33;18.77;;;3.10;99.90;;;;;;4952034;28;20035;-74
2023/03/05 00:16:47;;;;;;;40.28;17.58;;;3.10;99.90;;;;;;4948356;28;20134;-74
2023/03/05 00:19:13;;;;;;;41.80;18.73;;;3.10;99.90;;;;;;4942699;29;20058;-75
2023/03/05 00:21:40;;;;;;;43.15;17.00;;;3.10;99.90;;;;;;4940441;29;20032;-74
2023/03/05 00:24:16;;;;;;;39.65;17.65;;;3.10;99.90;;;;;;4937512;29;20026;-75
2023/03/05 00:26:42;;;;;;;43.38;18.08;;;3.10;99.90;;;;;;4949503;29;20496;-73
2023/03/05 00:29:08;;;;;;;41.92;17.73;;;3.10;99.90;;;;;;4937626;29;20075;-74
2023/03/05 00:31:36;;;;;;;40.17;17.50;;;3.10;99.90;;;;;;4936095;29;20516;-72
2023/03/05 00:34:04;;;;;;;42.20;16.83;;;3.10;99.90;;;;;;4943947;29;20441;-73
2023/03/05 00:36:30;;;;;;;39.83;16.98;;;3.10;99.90;;;;;;4944462;29;20095;-73
2023/03/05 00:38:56;;;;;;;38.35;17.70;;;3.10;99.90;;;;;;4949625;28;20027;-73
2023/03/05 00:41:21;;;;;;;37.92;17.27;;;3.10;99.90;;;;;;4941823;29;20333;-73
2023/03/05 00:43:47;;;;;;;42.53;16.65;;;3.10;99.90;;;;;;4943460;28;20380;-75
2023/03/05 00:46:13;;;;;;;44.22;17.08;;;3.10;99.90;;;;;;4940342;29;20031;-73
2023/03/05 00:48:39;;;;;;;40.47;17.17;;;3.10;99.90;;;;;;4942675;29;20024;-74
2023/03/05 00:51:05;;;;;;;39.55;17.40;;;3.20;99.90;;;;;;4954563;29;20031;-72
2023/03/05 00:53:30;;;;;;;39.17;16.58;;;3.10;99.90;;;;;;4945052;28;20032;-75
2023/03/05 00:55:56;;;;;;;40.15;15.73;;;3.10;99.90;;;;;;4949351;28;20087;-73
2023/03/05 00:58:22;;;;;;;40.80;16.55;;;3.10;99.90;;;;;;4948066;29;20103;-75
2023/03/05 01:00:49;;;;;;;40.05;16.92;;;3.20;99.90;;;;;;4949473;29;20393;-73
2023/03/05 01:03:16;;;;;;;42.10;17.75;;;3.20;99.90;;;;;;4943355;29;20050;-73
2023/03/05 01:05:42;;;;;;;45.88;17.80;;;3.20;99.90;;;;;;4947562;28;20414;-73
2023/03/05 01:08:07;;;;;;;37.40;15.88;;;3.20;99.90;;;;;;4946558;29;20059;-74
2023/03/05 01:10:33;;;;;;;38.13;16.10;;;3.20;99.90;;;;;;4940460;28;20131;-73
2023/03/05 01:12:59;;;;;;;40.10;15.15;;;3.10;99.90;;;;;;4947464;29;20031;-74
2023/03/05 01:15:25;;;;;;;35.15;15.32;;;3.20;99.90;;;;;;4939973;28;20470;-73
2023/03/05 01:17:50;;;;;;;38.75;15.43;;;3.20;99.90;;;;;;4952780;29;20097;-74
2023/03/05 01:20:18;;;;;;;36.35;15.63;;;3.20;99.90;;;;;;4941367;29;20115;-73
2023/03/05 01:22:44;;;;;;;38.00;14.50;;;3.20;99.90;;;;;;4944294;28;20263;-74
2023/03/05 01:25:12;;;;;;;42.65;17.77;;;3.20;99.90;;;;;;4945444;29;20195;-73
2023/03/05 01:27:37;;;;;;;47.45;18.13;;;3.20;99.90;;;;;;4940645;28;20035;-73
2023/03/05 01:30:06;;;;;;;40.00;16.95;;;3.20;99.90;;;;;;4938752;29;20102;-74
2023/03/05 01:32:32;;;;;;;40.60;16.80;;;3.20;99.90;;;;;;4939675;29;20031;-74
2023/03/05 01:34:59;;;;;;;43.28;18.48;;;3.20;99.90;;;;;;4952397;28;20036;-73
2023/03/05 01:37:25;;;;;;;43.75;17.95;;;3.20;99.90;;;;;;4945162;29;20393;-75
2023/03/05 01:39:50;;;;;;;47.00;19.35;;;3.20;99.90;;;;;;4950685;29;20038;-73
2023/03/05 01:42:18;;;;;;;41.58;18.17;;;3.20;99.90;;;;;;4944556;29;20034;-73
2023/03/05 01:45:01;;;;;;;47.58;19.38;;;3.30;99.90;;;;;;4947791;29;20043;-73
2023/03/05 01:47:45;;;;;;;45.08;18.77;;;3.20;99.90;;;;;;4941345;29;20046;-75
2023/03/05 01:50:12;;;;;;;;;;;3.20;99.90;;;;;;4948325;29;20547;-74
2023/03/05 01:52:42;;;;;;;48.30;18.63;;;3.30;99.90;;;;;;4946978;28;19910;-74
2023/03/05 01:55:13;;;;;;;40.85;18.02;;;3.30;99.90;;;;;;4945811;29;20079;-75
2023/03/05 01:57:48;;;;;;;46.90;18.25;;;3.30;99.90;;;;;;4947829;28;20520;-74
2023/03/05 02:00:26;;;;;;;45.08;20.48;;;3.30;99.90;;;;;;4939417;28;20038;-74
2023/03/05 02:02:52;;;;;;;43.03;18.35;;;3.30;99.90;;;;;;4957511;28;20035;-74
2023/03/05 02:05:25;;;;;;;49.65;18.90;;;3.30;99.90;;;;;;4947755;29;20035;-74
2023/03/05 02:07:55;;;;;;;45.23;18.83;;;3.30;99.90;;;;;;4945834;28;20107;-75
2023/03/05 02:10:24;;;;;;;50.00;18.80;;;3.20;99.90;;;;;;4937925;28;20773;-74
2023/03/05 02:12:51;;;;;;;43.63;17.02;;;3.30;99.90;;;;;;4941377;29;20039;-74
2023/03/05 02:15:18;;;;;;;43.85;19.23;;;3.30;99.90;;;;;;4949495;28;20504;-75
2023/03/05 02:17:44;;;;;;;40.35;17.60;;;3.20;99.90;;;;;;4938731;28;20032;-74
2023/03/05 02:20:17;;;;;;;48.45;18.33;;;3.20;99.90;;;;;;4941330;29;20027;-74
2023/03/05 02:22:42;;;;;;;43.75;18.40;;;3.20;99.90;;;;;;4950694;29;20031;-74
2023/03/05 02:25:17;;;;;;;39.88;17.77;;;3.20;99.90;;;;;;4940308;29;20389;-74
2023/03/05 02:28:05;;;;;;;50.78;18.70;;;3.20;99.90;;;;;;4948869;29;20027;-73
2023/03/05 02:30:30;;;;;;;38.80;17.40;;;3.20;99.90;;;;;;4939480;28;20620;-74
2023/03/05 02:32:57;;;;;;;44.10;18.23;;;3.30;99.90;;;;;;4947663;29;20031;-74
2023/03/05 02:35:23;;;;;;;41.67;17.25;;;3.30;99.90;;;;;;4970800;23;20070;-76
2023/03/05 02:37:49;;;;;;;45.13;18.05;;;3.20;99.90;;;;;;4968559;28;20124;-76
2023/03/05 02:40:15;;;;;;;43.03;17.92;;;3.30;99.90;;;;;;4969008;28;20038;-75
2023/03/05 02:42:41;;;;;;;41.60;18.67;;;3.30;99.90;;;;;;4970452;28;20113;-75
2023/03/05 02:45:08;;;;;;;45.65;19.02;;;3.30;99.90;;;;;;4973917;28;20030;-76
2023/03/05 02:47:34;;;;;;;41.35;17.52;;;3.30;99.90;;;;;;4970852;28;20031;-76
2023/03/05 02:50:00;;;;;;;43.42;18.15;;;3.30;99.90;;;;;;4968013;28;20031;-76
2023/03/05 02:52:26;;;;;;;41.08;17.40;;;3.30;99.90;;;;;;4971348;28;20476;-76
2023/03/05 02:54:52;;;;;;;44.33;17.50;;;3.30;99.90;;;;;;4970230;28;20084;-76
2023/03/05 02:57:18;;;;;;;41.47;17.08;;;3.30;99.90;;;;;;4968218;28;20118;-75
2023/03/05 02:59:45;;;;;;;36.00;16.20;;;3.30;99.90;;;;;;4971294;28;20039;-76
2023/03/05 03:02:11;;;;;;;42.70;17.77;;;3.30;99.90;;;;;;4969957;28;20038;-76
2023/03/05 03:04:37;;;;;;;40.88;17.15;;;3.30;99.90;;;;;;4971521;28;20490;-78
2023/03/05 03:07:02;;;;;;;36.72;14.98;;;3.30;99.90;;;;;;4969251;28;20034;-75
2023/03/05 03:09:28;;;;;;;38.72;15.57;;;3.20;99.90;;;;;;4969787;28;20094;-75
2023/03/05 03:11:54;;;;;;;38.00;15.73;;;3.30;99.90;;;;;;4971239;28;20034;-75
2023/03/05 03:14:20;;;;;;;37.83;16.33;;;3.20;99.90;;;;;;4967057;28;20113;-76
2023/03/05 03:16:46;;;;;;;38.75;16.23;;;3.20;99.90;;;;;;4986461;28;20406;-75
2023/03/05 03:19:12;;;;;;;41.22;16.65;;;3.20;99.90;;;;;;4967900;28;20049;-75
2023/03/05 03:21:37;;;;;;;38.47;16.13;;;3.20;99.90;;;;;;4964677;28;20035;-76
2023/03/05 03:24:03;;;;;;;39.22;15.32;;;3.10;99.90;;;;;;4970366;28;20037;-76
2023/03/05 03:26:30;;;;;;;39.35;16.80;;;3.20;99.90;;;;;;4970764;28;20039;-77
2023/03/05 03:28:56;;;;;;;41.35;16.98;;;3.20;99.90;;;;;;4967573;28;20166;-75
2023/03/05 03:31:22;;;;;;;38.15;17.70;;;3.20;99.90;;;;;;4970227;28;20098;-76
2023/03/05 03:33:47;;;;;;;40.72;17.08;;;3.10;99.90;;;;;;4974198;28;20105;-77
2023/03/05 03:36:13;;;;;;;37.40;15.68;;;3.10;99.90;;;;;;4971746;28;20560;-77
2023/03/05 03:38:39;;;;;;;43.72;16.30;;;3.10;99.90;;;;;;4987451;28;20038;-77
2023/03/05 03:41:06;;;;;;;36.00;15.68;;;3.10;99.90;;;;;;4972466;28;20034;-76
2023/03/05 03:43:33;;;;;;;35.92;15.30;;;3.10;99.90;;;;;;4972984;28;20038;-77
2023/03/05 03:45:58;;;;;;;39.10;15.73;;;3.10;99.90;;;;;;4973869;28;20023;-78
2023/03/05 03:48:24;;;;;;;38.60;15.70;;;3.20;99.90;;;;;;4971553;28;20027;-76
2023/03/05 03:50:50;;;;;;;39.47;15.57;;;3.10;99.90;;;;;;4974782;28;20113;-75
2023/03/05 03:53:16;;;;;;;37.72;15.98;;;3.10;99.90;;;;;;4972533;28;20038;-75
2023/03/05 03:55:43;;;;;;;40.50;16.52;;;3.20;99.90;;;;;;4971447;28;20058;-76
2023/03/05 03:58:09;;;;;;;37.55;16.15;;;3.20;99.90;;;;;;4983635;28;20039;-76
2023/03/05 04:00:35;;;;;;;37.42;15.40;;;3.20;99.90;;;;;;4973255;28;20038;-76
2023/03/05 04:03:01;;;;;;;43.75;16.58;;;3.10;99.90;;;;;;4971544;28;20121;-76
2023/03/05 04:05:26;;;;;;;34.22;15.20;;;3.20;99.90;;;;;;4971557;28;20031;-76
2023/03/05 04:07:52;;;;;;;39.25;17.58;;;3.20;99.90;;;;;;4972558;28;20031;-76
2023/03/05 04:10:18;;;;;;;34.65;15.55;;;3.20;99.90;;;;;;4973043;28;20257;-77
2023/03/05 04:12:45;;;;;;;35.70;14.73;;;3.10;99.90;;;;;;4973585;28;20035;-76
2023/03/05 04:15:11;;;;;;;36.58;14.80;;;3.20;99.90;;;;;;4975387;28;20073;-75
2023/03/05 04:17:36;;;;;;;40.03;15.20;;;3.20;99.90;;;;;;4973891;28;20534;-75
2023/03/05 04:20:04;;;;;;;38.63;15.75;;;3.20;99.90;;;;;;4969261;28;20051;-76
2023/03/05 04:22:30;;;;;;;39.70;15.95;;;3.20;99.90;;;;;;4971067;28;20027;-76
2023/03/05 04:24:55;;;;;;;34.80;16.60;;;3.20;99.90;;;;;;4982816;28;20031;-76
2023/03/05 04:27:21;;;;;;;33.28;14.50;;;3.20;99.90;;;;;;4970394;28;20057;-77
2023/03/05 04:29:46;;;;;;;39.83;15.38;;;3.20;99.90;;;;;;4969663;28;20410;-76
2023/03/05 04:32:12;;;;;;;37.05;15.43;;;3.20;99.90;;;;;;4971498;28;20049;-75
2023/03/05 04:34:38;;;;;;;45.05;17.65;;;3.20;99.90;;;;;;4969577;28;20046;-75
2023/03/05 04:37:04;;;;;;;45.10;17.27;;;3.20;99.90;;;;;;4972576;28;20026;-75
2023/03/05 04:39:29;;;;;;;40.03;16.77;;;3.20;99.90;;;;;;4970605;28;20097;-77
2023/03/05 04:41:55;;;;;;;35.13;15.10;;;3.20;99.90;;;;;;4971720;28;20027;-76
2023/03/05 04:44:22;;;;;;;40.03;14.95;;;3.20;99.90;;;;;;4970990;28;20476;-77
2023/03/05 04:46:48;;;;;;;40.22;16.00;;;3.20;99.90;;;;;;4969398;28;20027;-77
2023/03/05 04:49:14;;;;;;;37.95;15.32;;;3.20;99.90;;;;;;4976072;28;20145;-76
2023/03/05 04:51:40;;;;;;;42.35;16.45;;;3.30;99.90;;;;;;4970849;28;20106;-76
2023/03/05 04:54:06;;;;;;;38.10;16.38;;;3.30;99.90;;;;;;4972026;28;20031;-77
2023/03/05 04:56:32;;;;;;;36.25;16.38;;;3.30;99.90;;;;;;4973692;28;20075;-76
2023/03/05 04:58:58;;;;;;;39.92;16.90;;;3.30;99.90;;;;;;4970589;28;20049;-77
2023/03/05 05:01:24;;;;;;;46.78;18.30;;;3.20;99.90;;;;;;4970570;28;20033;-76
2023/03/05 05:03:50;;;;;;;38.15;16.08;;;3.30;99.90;;;;;;4969980;28;20123;-76
2023/03/05 05:06:15;;;;;;;38.97;16.05;;;3.30;99.90;;;;;;4972336;28;20472;-77
2023/03/05 05:08:42;;;;;;;42.95;16.25;;;3.30;99.90;;;;;;4971594;28;20027;-77
2023/03/05 05:11:12;;;;;;;35.58;16.88;;;3.20;99.90;;;;;;4976917;28;20028;-76
2023/03/05 05:13:38;;;;;;;36.55;15.82;;;3.30;99.90;;;;;;4969165;28;20045;-76
2023/03/05 05:16:07;;;;;;;36.85;14.20;;;3.20;99.90;;;;;;4965515;28;20031;-75
2023/03/05 05:18:33;;;;;;;39.85;16.33;;;3.20;99.90;;;;;;4967736;28;20089;-76
2023/03/05 05:20:58;;;;;;;35.83;14.98;;;3.30;99.90;;;;;;4972438;28;20034;-76
2023/03/05 05:23:24;;;;;;;46.10;17.05;;;3.20;99.90;;;;;;4972138;28;20034;-75
2023/03/05 05:26:01;;;;;;;36.95;16.13;;;3.20;99.90;;;;;;4971603;28;20026;-75
2023/03/05 05:28:27;;;;;;;34.30;14.40;;;3.30;99.90;;;;;;4968489;28;20033;-75
2023/03/05 05:30:53;;;;;;;35.33;14.38;;;3.30;99.90;;;;;;4970996;28;20097;-76
2023/03/05 05:33:20;;;;;;;40.10;15.55;;;3.30;99.90;;;;;;4967862;28;20045;-77
2023/03/05 05:35:45;;;;;;;35.33;14.25;;;3.30;99.90;;;;;;4971688;28;20035;-77
2023/03/05 05:38:11;;;;;;;38.50;15.43;;;3.30;99.90;;;;;;4969950;28;20137;-77
2023/03/05 05:40:37;;;;;;;33.85;15.00;;;3.30;99.90;;;;;;4969868;28;20026;-76
2023/03/05 05:43:03;;;;;;;38.92;15.27;;;3.30;99.90;;;;;;4971128;28;20023;-77
2023/03/05 05:45:28;;;;;;;35.08;16.13;;;3.30;99.90;;;;;;4970219;28;20533;-77
2023/03/05 05:47:54;;;;;;;38.30;16.85;;;3.30;99.90;;;;;;4972371;28;20026;-76
2023/03/05 05:50:20;;;;;;;39.30;16.98;;;3.30;99.90;;;;;;4968608;28;20043;-76
2023/03/05 05:52:46;;;;;;;39.00;17.55;;;3.30;99.90;;;;;;4970711;28;20039;-77
2023/03/05 05:55:12;;;;;;;38.92;15.45;;;3.30;99.90;;;;;;4968286;28;20213;-77
2023/03/05 05:57:38;;;;;;;35.50;16.25;;;3.30;99.90;;;;;;4983613;28;20030;-75
2023/03/05 06:00:07;;;;;;;39.22;15.90;;;3.30;99.90;;;;;;4971704;28;20057;-75
2023/03/05 06:02:33;;;;;;;40.15;16.88;;;3.30;99.90;;;;;;4968696;28;20037;-76
2023/03/05 06:04:59;;;;;;;42.72;17.77;;;3.30;99.90;;;;;;4972834;28;20331;-76
2023/03/05 06:07:24;;;;;;;44.95;19.20;;;3.30;99.90;;;;;;4970460;28;20034;-76
2023/03/05 06:09:50;;;;;;;41.75;18.58;;;3.20;99.90;;;;;;4966083;28;20101;-76
2023/03/05 06:12:15;;;;;;;38.90;16.38;;;3.20;99.90;;;;;;4971215;28;20035;-76
2023/03/05 06:14:41;;;;;;;38.80;17.60;;;3.20;99.90;;;;;;4970018;28;20039;-75
2023/03/05 06:17:07;;;;;;;41.90;18.30;;;3.20;99.90;;;;;;4966643;28;20038;-77
2023/03/05 06:19:32;;;;;;;38.63;16.23;;;3.20;99.90;;;;;;4969329;28;20136;-74
2023/03/05 06:21:58;;;;;;;46.03;17.23;;;3.20;99.90;;;;;;4966964;28;20181;-76
2023/03/05 06:24:23;;;;;;;43.92;18.15;;;3.20;99.90;;;;;;4975225;28;20031;-75
2023/03/05 06:26:49;;;;;;;41.00;18.05;;;3.20;99.90;;;;;;4968800;28;20590;-76
2023/03/05 06:29:15;;;;;;;44.80;18.70;;;3.20;99.90;;;;;;4969569;28;20027;-76
2023/03/05 06:31:41;;;;;;;41.88;17.90;;;3.20;99.90;;;;;;4970317;28;20444;-75
2023/03/05 06:34:06;;;;;;;42.25;16.95;;;3.20;99.90;;;;;;4970120;28;20117;-76
2023/03/05 06:36:32;;;;;;;45.17;18.27;;;3.20;99.90;;;;;;4969286;28;20057;-76
2023/03/05 06:38:58;;;;;;;41.83;16.70;;;3.20;99.90;;;;;;4971379;28;20496;-75
2023/03/05 06:41:27;;;;;;;33.45;15.90;;;3.20;99.90;;;;;;4970096;28;20051;-76
2023/03/05 06:43:53;;;;;;;41.63;17.15;;;3.20;99.90;;;;;;4966992;28;20506;-76
2023/03/05 06:46:25;;;;;;;40.90;17.52;;;3.20;99.90;;;;;;4965705;28;20035;-76
2023/03/05 06:48:51;;;;;;;36.15;15.73;;;3.20;99.90;;;;;;4968546;28;20325;-74
2023/03/05 06:51:19;;;;;;;44.70;16.55;;;3.20;99.90;;;;;;4974354;28;20053;-74
2023/03/05 06:53:46;;;;;;;34.47;16.08;;;3.20;99.90;;;;;;4969358;28;20034;-75
2023/03/05 06:56:15;;;;;;;34.40;14.63;;;3.30;99.90;;;;;;4976446;28;20054;-75
2023/03/05 06:58:45;;;;;;;35.30;15.82;;;3.20;99.90;;;;;;4971416;28;20029;-74
2023/03/05 07:01:12;;;;;;;34.53;15.68;;;3.30;99.90;;;;;;4974599;28;20093;-73
2023/03/05 07:03:37;;;;;;;33.20;15.55;;;3.20;99.90;;;;;;4974287;28;20106;-73
2023/03/05 07:06:05;;;;;;;37.17;15.20;;;3.30;99.90;;;;;;4973270;28;20058;-74
2023/03/05 07:08:31;;;;;;;35.42;15.60;;;3.30;99.90;;;;;;4973862;28;20099;-75
2023/03/05 07:10:57;;;;;;;35.60;14.43;;;3.30;99.90;;;;;;4920946;28;20114;-74
2023/03/05 07:13:23;;;;;;;33.20;14.95;;;3.30;99.90;;;;;;4971525;28;20079;-72
2023/03/05 07:15:48;;;;;;;32.45;14.23;;;3.40;99.90;;;;;;4968823;28;20035;-76
2023/03/05 07:18:14;;;;;;;36.72;14.95;;;3.40;99.90;;;;;;4974567;28;20027;-74
2023/03/05 07:20:40;;;;;;;35.03;14.82;;;3.40;99.90;;;;;;4970020;28;20027;-75
2023/03/05 07:23:05;;;;;;;35.10;14.43;;;3.40;99.90;;;;;;4973748;28;20118;-74
2023/03/05 07:25:34;;;;;;;34.08;14.27;;;3.40;99.90;;;;;;4973779;28;20122;-75
2023/03/05 07:27:59;;;;;;;33.80;14.27;;;3.40;99.90;;;;;;4971692;28;20110;-75
2023/03/05 07:30:25;;;;;;;34.45;13.93;;;3.40;99.90;;;;;;4975651;28;20050;-74
2023/03/05 07:32:51;;;;;;;36.03;14.60;;;3.40;99.90;;;;;;4975386;28;20035;-74
2023/03/05 07:35:17;;;;;;;32.10;13.40;;;3.40;99.90;;;;;;4973814;28;20057;-75
2023/03/05 07:37:42;;;;;;;33.78;13.68;;;3.50;99.90;;;;;;4976541;28;20066;-75
2023/03/05 07:40:09;;;;;;;30.40;13.27;;;3.40;99.90;;;;;;4971980;28;20031;-75
2023/03/05 07:42:34;;;;;;;37.00;14.98;;;3.50;99.90;;;;;;4968679;28;20030;-74
2023/03/05 07:45:00;;;;;;;32.10;13.20;;;3.40;99.90;;;;;;4973938;28;20105;-75
2023/03/05 07:47:26;;;;;;;35.78;14.07;;;3.50;99.90;;;;;;4966013;28;20029;-75
2023/03/05 07:49:51;;;;;;;29.15;13.45;;;3.50;99.90;;;;;;4973682;28;20057;-74
2023/03/05 07:52:17;;;;;;;32.35;13.75;;;3.50;99.90;;;;;;4984783;28;20061;-75
2023/03/05 07:54:42;;;;;;;29.83;13.07;;;3.50;99.90;;;;;;4977097;28;20032;-75
2023/03/05 07:57:11;;;;;;;30.13;13.77;;;3.60;99.90;;;;;;4973812;28;20039;-74
2023/03/05 07:59:37;;;;;;;29.92;14.00;;;3.60;99.90;;;;;;4971848;28;20099;-74
2023/03/05 08:02:03;;;;;;;31.85;15.50;;;3.60;99.90;;;;;;4963481;28;20027;-74
2023/03/05 08:04:30;;;;;;;31.23;13.43;;;3.70;99.90;;;;;;4972763;28;20039;-76
2023/03/05 08:06:57;;;;;;;30.60;12.93;;;3.70;99.90;;;;;;4966791;28;20453;-75
2023/03/05 08:09:23;;;;;;;28.73;13.75;;;3.70;99.90;;;;;;4968417;28;20019;-75
2023/03/05 08:11:48;;;;;;;28.58;13.40;;;3.80;99.90;;;;;;4969279;28;20346;-75
2023/03/05 08:14:14;;;;;;;35.75;14.35;;;3.80;99.90;;;;;;4972931;28;20047;-75
2023/03/05 08:16:40;;;;;;;30.45;13.10;;;3.80;99.90;;;;;;4972782;28;20046;-74
2023/03/05 08:19:07;;;;;;;33.78;12.82;;;3.90;99.90;;;;;;4970824;28;20032;-75
2023/03/05 08:21:34;;;;;;;30.65;13.30;;;3.90;99.90;;;;;;4971386;28;20022;-75
2023/03/05 08:24:05;;;;;;;28.42;12.93;;;3.80;99.90;;;;;;4970894;28;20027;-76
2023/03/05 08:26:32;;;;;;;34.00;13.93;;;3.90;99.90;;;;;;4970498;28;20019;-75
2023/03/05 08:28:58;;;;;;;36.53;14.57;;;3.90;99.90;;;;;;4969222;28;20019;-74
2023/03/05 08:31:26;;;;;;;32.10;14.52;;;3.90;99.90;;;;;;4968564;28;20121;-74
2023/03/05 08:33:54;;;;;;;34.75;14.13;;;3.90;99.90;;;;;;4969260;28;20085;-72
2023/03/05 08:36:20;;;;;;;29.75;14.13;;;4.00;99.90;;;;;;4972017;28;20377;-71
2023/03/05 08:38:47;;;;;;;31.55;12.65;;;4.00;99.90;;;;;;4972374;28;20026;-71
2023/03/05 08:41:14;;;;;;;31.60;12.30;;;4.00;99.90;;;;;;4969019;28;20183;-72
2023/03/05 08:43:40;;;;;;;31.45;14.35;;;4.00;99.90;;;;;;4965289;28;20034;-72
2023/03/05 08:46:06;;;;;;;26.50;12.63;;;4.10;99.90;;;;;;4965395;28;20027;-73
2023/03/05 08:48:33;;;;;;;28.05;12.63;;;4.10;99.90;;;;;;4963706;28;20400;-73
2023/03/05 08:51:07;;;;;;;30.67;13.25;;;4.10;99.90;;;;;;4970930;28;20027;-71
2023/03/05 08:53:32;;;;;;;31.88;13.82;;;4.10;99.90;;;;;;4964489;28;20035;-71
2023/03/05 08:55:59;;;;;;;33.90;14.57;;;4.10;99.90;;;;;;4965709;28;20601;-72
2023/03/05 08:58:25;;;;;;;32.95;13.65;;;4.10;99.90;;;;;;4968771;28;20437;-71
2023/03/05 09:00:51;;;;;;;32.55;12.50;;;4.20;99.90;;;;;;4970325;28;20086;-72
2023/03/05 09:03:17;;;;;;;26.60;12.68;;;4.10;99.90;;;;;;4970135;28;20032;-72
2023/03/05 09:05:43;;;;;;;28.98;12.82;;;4.20;99.90;;;;;;4971526;28;20050;-73
2023/03/05 09:08:09;;;;;;;32.17;12.93;;;4.20;99.90;;;;;;4967286;28;20084;-72
2023/03/05 09:10:34;;;;;;;33.35;13.52;;;4.20;99.90;;;;;;4972704;28;20034;-71
2023/03/05 09:13:00;;;;;;;31.95;13.90;;;4.30;99.90;;;;;;4970022;28;20035;-72
2023/03/05 09:15:26;;;;;;;28.17;12.13;;;4.40;99.90;;;;;;4970839;28;20407;-72
2023/03/05 09:17:51;;;;;;;30.27;13.15;;;4.40;99.90;;;;;;4965832;28;20448;-72
2023/03/05 09:20:17;;;;;;;25.50;12.70;;;4.40;99.90;;;;;;4968952;28;20039;-72
2023/03/05 09:22:43;;;;;;;33.08;13.82;;;4.40;99.90;;;;;;4965423;28;20095;-72
2023/03/05 09:25:10;;;;;;;31.80;13.98;;;4.50;99.90;;;;;;4965245;28;20022;-73
2023/03/05 09:27:37;;;;;;;31.95;14.70;;;4.50;99.90;;;;;;4973253;28;20026;-72
2023/03/05 09:30:04;;;;;;;32.55;13.48;;;4.50;99.90;;;;;;4970878;28;20023;-72
2023/03/05 09:32:30;;;;;;;21.80;11.85;;;4.60;99.90;;;;;;4971376;28;20050;-72
2023/03/05 09:34:56;;;;;;;27.55;12.07;;;4.60;99.90;;;;;;4970375;28;20034;-72
2023/03/05 09:37:22;;;;;;;29.08;14.50;;;4.70;99.90;;;;;;4972019;28;20031;-72
2023/03/05 09:39:48;;;;;;;31.25;14.43;;;4.70;99.90;;;;;;4968123;28;20552;-73
2023/03/05 09:42:38;;;;;;;30.58;14.20;;;4.80;99.90;;;;;;4969352;28;20126;-73
2023/03/05 09:45:27;;;;;;;25.15;12.25;;;4.80;99.90;;;;;;4969311;28;20054;-72
2023/03/05 09:48:16;;;;;;;29.55;13.50;;;4.80;99.90;;;;;;4968690;28;20022;-72
2023/03/05 09:50:51;;;;;;;27.17;12.18;;;4.90;99.90;;;;;;4967992;28;20476;-72
2023/03/05 09:53:43;;;;;;;29.08;12.80;;;4.90;99.90;;;;;;4969534;28;20045;-72
2023/03/05 09:56:18;;;;;;;25.67;12.57;;;5.00;99.90;;;;;;4983838;28;20492;-72
2023/03/05 09:58:57;;;;;;;28.52;12.55;;;5.00;99.90;;;;;;4984767;28;20027;-74
2023/03/05 10:01:34;;;;;;;26.27;13.40;;;5.10;99.90;;;;;;4973384;28;20034;-72
2023/03/05 10:04:19;;;;;;;27.25;12.32;;;5.20;99.90;;;;;;4969834;28;20082;-73
2023/03/05 10:07:17;;;;;;;24.90;11.77;;;5.20;99.90;;;;;;4965151;28;20058;-72
2023/03/05 10:09:46;;;;;;;25.92;13.32;;;5.20;99.90;;;;;;4971159;28;20043;-72
2023/03/05 10:12:31;;;;;;;29.35;14.95;;;5.30;99.90;;;;;;4971826;28;20029;-72
2023/03/05 10:14:59;;;;;;;30.02;13.68;;;5.30;99.90;;;;;;4969070;28;20726;-73
2023/03/05 10:17:43;;;;;;;20.90;11.35;;;5.30;99.90;;;;;;4968606;28;20034;-72
2023/03/05 10:20:14;;;;;;;25.88;12.80;;;5.20;99.90;;;;;;4975137;28;20105;-73
2023/03/05 10:22:58;;;;;;;24.75;13.30;;;5.20;99.90;;;;;;4970923;28;20115;-71
2023/03/05 10:25:47;;;;;;;28.35;12.68;;;5.20;99.90;;;;;;4968732;28;20034;-71
2023/03/05 10:28:20;;;;;;;27.75;12.82;;;5.20;99.90;;;;;;4965787;28;20047;-72
2023/03/05 10:30:53;;;;;;;27.05;12.00;;;5.20;99.90;;;;;;4970519;28;20041;-71
2023/03/05 10:33:29;;;;;;;24.58;12.30;;;5.20;99.90;;;;;;4970966;28;20031;-72
2023/03/05 10:36:03;;;;;;;24.67;11.65;;;5.30;99.90;;;;;;4973292;28;20047;-72
2023/03/05 10:38:38;;;;;;;26.65;12.85;;;5.40;99.90;;;;;;4968194;28;20038;-72
2023/03/05 10:41:15;;;;;;;24.45;11.93;;;5.40;99.90;;;;;;4970443;28;20147;-72
2023/03/05 10:43:51;;;;;;;27.50;12.18;;;5.50;99.90;;;;;;4971254;28;20080;-72
2023/03/05 10:46:21;;;;;;;25.40;12.20;;;5.50;99.90;;;;;;4968225;28;20069;-72
2023/03/05 10:48:59;;;;;;;33.20;13.35;;;5.60;99.90;;;;;;4968536;28;20360;-71
2023/03/05 10:51:36;;;;;;;28.23;13.32;;;5.60;99.90;;;;;;4969725;28;20049;-71
2023/03/05 10:54:27;;;;;;;28.42;12.32;;;5.50;99.90;;;;;;4968948;28;20049;-71
2023/03/05 10:57:26;;;;;;;25.17;13.23;;;5.50;99.90;;;;;;4969443;28;20035;-73
2023/03/05 10:59:57;;;;;;;24.65;12.10;;;5.50;99.90;;;;;;4961431;28;20091;-71
2023/03/05 11:02:23;;;;;;;23.20;11.90;;;5.50;99.90;;;;;;4968133;28;20026;-71
2023/03/05 11:04:50;;;;;;;30.30;12.75;;;5.50;99.90;;;;;;4970957;28;20144;-73
2023/03/05 11:07:16;;;;;;;24.80;11.75;;;5.50;99.90;;;;;;4966591;28;20019;-72
2023/03/05 11:10:03;;;;;;;30.02;13.48;;;5.50;99.90;;;;;;4967166;28;20041;-72
2023/03/05 11:12:34;;;;;;;23.23;10.88;;;5.60;99.90;;;;;;4969556;28;20026;-73
2023/03/05 11:15:06;;;;;;;28.40;12.75;;;5.60;99.90;;;;;;4972391;28;20049;-72
2023/03/05 11:17:41;;;;;;;22.23;10.55;;;5.80;99.90;;;;;;4965860;28;20097;-72
2023/03/05 11:20:25;;;;;;;22.95;11.60;;;5.80;99.90;;;;;;4971334;28;20023;-72
2023/03/05 11:23:04;;;;;;;23.77;11.77;;;5.80;99.90;;;;;;4972174;28;20105;-74
2023/03/05 11:25:32;;;;;;;22.38;11.45;;;5.80;99.90;;;;;;4966796;28;20043;-71
2023/03/05 11:28:00;;;;;;;22.92;10.95;;;5.90;99.90;;;;;;4974027;28;20110;-72
2023/03/05 11:30:34;;;;;;;21.52;10.82;;;6.00;99.90;;;;;;4966485;28;20027;-72
2023/03/05 11:33:22;;;;;;;22.83;10.25;;;6.00;99.90;;;;;;4968773;28;20039;-73
2023/03/05 11:35:49;;;;;;;20.75;11.63;;;6.10;99.90;;;;;;4968696;28;20492;-72
2023/03/05 11:38:20;;;;;;;22.95;11.00;;;6.20;99.90;;;;;;4966202;28;20043;-71
2023/03/05 11:40:47;;;;;;;25.20;12.38;;;6.20;99.90;;;;;;4969015;28;20499;-74
2023/03/05 11:43:24;;;;;;;25.95;12.95;;;6.20;99.90;;;;;;4968727;28;20019;-71
2023/03/05 11:46:00;;;;;;;27.35;12.25;;;6.30;99.90;;;;;;4972480;28;20023;-73
2023/03/05 11:48:30;;;;;;;24.80;11.07;;;6.30;99.90;;;;;;4964053;28;20070;-72
2023/03/05 11:51:02;;;;;;;19.33;10.38;;;6.30;99.90;;;;;;4972483;28;20019;-72
2023/03/05 11:53:34;;;;;;;24.20;11.02;;;6.20;99.90;;;;;;4986391;28;20390;-73
2023/03/05 11:56:21;;;;;;;19.83;9.65;;;6.20;99.90;;;;;;4972870;28;20018;-73
2023/03/05 11:59:12;;;;;;;20.23;9.85;;;6.10;99.90;;;;;;4972792;28;20042;-73
2023/03/05 12:01:51;;;;;;;25.20;10.40;;;6.10;99.90;;;;;;4973174;28;20506;-71
2023/03/05 12:04:18;;;;;;;20.90;10.18;;;6.10;99.90;;;;;;4970219;28;20388;-72
2023/03/05 12:07:00;;;;;;;20.73;10.13;;;6.10;99.90;;;;;;4967280;28;20027;-72
2023/03/05 12:09:39;;;;;;;22.08;10.70;;;6.10;99.90;;;;;;4968290;28;20153;-72
2023/03/05 12:12:05;;;;;;;22.80;10.55;;;6.10;99.90;;;;;;4971173;28;20102;-72
2023/03/05 12:14:50;;;;;;;22.75;10.52;;;6.10;99.90;;;;;;4972743;28;20134;-73
2023/03/05 12:17:27;;;;;;;29.17;15.13;;;6.10;99.90;;;;;;4970967;28;20034;-73
2023/03/05 12:20:05;;;;;;;24.48;12.55;;;6.10;99.90;;;;;;4971751;28;20018;-72
2023/03/05 12:22:38;;;;;;;30.65;20.60;;;6.00;99.90;;;;;;4963115;28;20027;-73
2023/03/05 12:25:26;;;;;;;21.27;11.63;;;6.00;99.90;;;;;;4968705;28;20446;-74
2023/03/05 12:27:51;;;;;;;22.13;10.63;;;6.00;99.90;;;;;;4966377;28;20075;-72
2023/03/05 12:30:35;;;;;;;23.52;10.63;;;6.00;99.90;;;;;;4966545;28;20050;-72
2023/03/05 12:33:02;;;;;;;;;;;6.10;99.90;;;;;;4968926;28;20033;-72
2023/03/05 12:35:37;;;;;;;20.15;10.43;;;6.00;99.90;;;;;;4973086;28;20297;-73
2023/03/05 12:38:32;;;;;;;24.23;11.27;;;6.00;99.90;;;;;;4970568;28;20027;-71
2023/03/05 12:41:16;;;;;;;;;;;5.90;99.90;;;;;;4971986;28;20027;-73
2023/03/05 12:43:42;;;;;;;23.77;10.07;;;5.90;99.90;;;;;;4969210;28;19922;-72
2023/03/05 12:46:28;;;;;;;22.08;11.07;;;5.90;99.90;;;;;;4971430;28;20034;-73
2023/03/05 12:48:53;;;;;;;21.83;10.68;;;5.80;99.90;;;;;;4968204;28;20027;-72